الكل
Armidale Airport (Armidale, New South Wales) ARM حالة الطقس
|
Armidale, New South Wales (YARM)
سماء صافية
رياح خفيفة |
|
5 °C |
توقع منطقة محطة المطارARM
| Here is the undecoded forecast: 2026/05/08 07:05 YARM 080705Z 0808/0820 25010KT CAVOK FM081000 26004KT CAVOK FM081700 09004KT CAVOK PROB30 0815/0820 0300 FG BKN001 RMK T 08 06 04 03 Q 1021 1023 1023 1022 |
محفوظات أحدث تقرير روتيني عن حالة الطقس من أجل الطيران (الميتار )ARM
| Date | Time (AEST) | Flight Rules | Wind Dir. | Speed | Type | Height AGL (ft) | Visibility | Temp (°C) | Temp (°F) | Dew Point (°C) | Dew Point (°F) | Rel. Humid. | Pressure | Density Altitude | Remarks |
|---|---|---|---|---|---|---|---|---|---|---|---|---|---|---|---|
| 08-ماي | 21:00 | VFR | 270° | 7 kt | 10000 meters | 5° | 41° | 1° | 33° | 75% | 1023 mb | 2,780 ft | |||
| 08-ماي | 20:00 | VFR | 250° | 5 kt | 10000 meters | 6° | 42° | 1° | 33° | 70% | 1022 mb | 2,929 ft | |||
| 08-ماي | 19:00 | VFR | 250° | 4 kt | 10000 meters | 7° | 44° | 1° | 33° | 66% | 1022 mb | 3,049 ft | |||
| 08-ماي | 18:00 | VFR | 260° | 10 kt | 10000 meters | 7° | 44° | 1° | 33° | 66% | 1021 mb | 3,079 ft | |||
| 08-ماي | 17:00 | VFR | 260° | 11 kt | 10000 meters | 10° | 50° | 1° | 33° | 53% | 1021 mb | 3,439 ft | |||
| 08-ماي | 16:00 | VFR | 220° | 14 kt | 10000 meters | 12° | 53° | 0° | 32° | 44% | 1020 mb | 3,708 ft | |||
| 08-ماي | 15:00 | VFR | 240° | 15 kt | 10000 meters | 13° | 55° | 0° | 32° | 41% | 1019 mb | 3,858 ft | |||
| 08-ماي | 14:00 | VFR | 260° | 13 kt | 10000 meters | 14° | 57° | 1° | 33° | 41% | 1019 mb | 3,978 ft | |||
| 08-ماي | 13:00 | VFR | 260° | 15 kt | 10000 meters | 13° | 55° | 1° | 33° | 44% | 1020 mb | 3,828 ft | |||
| 08-ماي | 12:00 | VFR | 260° | 15 kt | 10000 meters | 12° | 53° | 1° | 33° | 47% | 1020 mb | 3,708 ft | |||
| 08-ماي | 11:00 | VFR | 270° | 12 kt | 10000 meters | 10° | 50° | 0° | 32° | 50% | 1021 mb | 3,439 ft | |||
| 08-ماي | 10:00 | VFR | 270° | 12 kt | 10000 meters | 8° | 46° | 0° | 32° | 57% | 1021 mb | 3,199 ft | |||
| 08-ماي | 09:00 | VFR | 250° | 11 kt | 10000 meters | 5° | 41° | -1° | 30° | 65% | 1022 mb | 2,809 ft | |||
| 08-ماي | 08:00 | VFR | 260° | 11 kt | 10000 meters | 3° | 37° | -1° | 30° | 75% | 1021 mb | 2,599 ft | |||
| 08-ماي | 07:00 | VFR | 260° | 10 kt | 10000 meters | 0° | 32° | -2° | 28° | 86% | 1021 mb | 2,239 ft | |||
| 08-ماي | 06:00 | VFR | 280° | 10 kt | 10000 meters | -1° | 30° | -3° | 26° | 86% | 1021 mb | 2,119 ft | |||
| 08-ماي | 05:00 | VFR | 270° | 9 kt | 10000 meters | -1° | 30° | -3° | 26° | 86% | 1020 mb | 2,148 ft | |||
| 08-ماي | 04:00 | VFR | 270° | 9 kt | 10000 meters | -1° | 30° | -4° | 24° | 80% | 1020 mb | 2,148 ft | |||
| 08-ماي | 03:00 | VFR | 260° | 10 kt | 10000 meters | 0° | 32° | -4° | 24° | 74% | 1020 mb | 2,268 ft | |||
| 08-ماي | 02:00 | VFR | 260° | 9 kt | 10000 meters | 0° | 32° | -4° | 24° | 74% | 1020 mb | 2,268 ft | |||
| 08-ماي | 01:00 | VFR | 270° | 6 kt | 10000 meters | 0° | 32° | -5° | 23° | 69% | 1020 mb | 2,268 ft | |||
| 08-ماي | 00:00 | VFR | 250° | 11 kt | 10000 meters | 1° | 33° | -5° | 23° | 64% | 1020 mb | 2,388 ft | |||
| 07-ماي | 23:00 | VFR | 250° | 11 kt | 10000 meters | 1° | 33° | -5° | 23° | 64% | 1020 mb | 2,388 ft | |||
| 07-ماي | 22:00 | VFR | Variable | 3 kt | 10000 meters | 2° | 35° | -6° | 21° | 55% | 1021 mb | 2,479 ft |
تسجيل الدخول
| مُتصفحك غير مُدعَّم. قم بترقية متصفحك |
